sensor_id;sensor_type;location;lat;lon;timestamp;temperature;humidity
11239;DHT22;5677;48.488;13.436;2022-08-19T00:01:59;23.80;56.60
11239;DHT22;5677;48.488;13.436;2022-08-19T00:04:29;23.80;56.60
11239;DHT22;5677;48.488;13.436;2022-08-19T00:07:02;23.80;56.50
11239;DHT22;5677;48.488;13.436;2022-08-19T00:09:33;23.70;56.60
11239;DHT22;5677;48.488;13.436;2022-08-19T00:12:02;23.70;56.60
11239;DHT22;5677;48.488;13.436;2022-08-19T00:14:31;23.70;56.60
11239;DHT22;5677;48.488;13.436;2022-08-19T00:17:03;23.70;56.60
11239;DHT22;5677;48.488;13.436;2022-08-19T00:19:32;23.80;56.60
11239;DHT22;5677;48.488;13.436;2022-08-19T00:22:02;23.70;56.60
11239;DHT22;5677;48.488;13.436;2022-08-19T00:24:32;23.70;56.60
11239;DHT22;5677;48.488;13.436;2022-08-19T00:27:01;23.70;56.60
11239;DHT22;5677;48.488;13.436;2022-08-19T00:29:30;23.70;56.60
11239;DHT22;5677;48.488;13.436;2022-08-19T00:31:59;23.70;56.60
11239;DHT22;5677;48.488;13.436;2022-08-19T00:34:29;23.70;56.60
11239;DHT22;5677;48.488;13.436;2022-08-19T00:36:58;23.70;56.60
11239;DHT22;5677;48.488;13.436;2022-08-19T00:39:27;23.70;56.60
11239;DHT22;5677;48.488;13.436;2022-08-19T00:41:56;23.70;56.60
11239;DHT22;5677;48.488;13.436;2022-08-19T00:44:26;23.70;56.60
11239;DHT22;5677;48.488;13.436;2022-08-19T00:46:57;23.70;56.60
11239;DHT22;5677;48.488;13.436;2022-08-19T00:49:31;23.70;56.60
11239;DHT22;5677;48.488;13.436;2022-08-19T00:52:05;23.70;56.60
11239;DHT22;5677;48.488;13.436;2022-08-19T00:54:36;23.70;56.60
11239;DHT22;5677;48.488;13.436;2022-08-19T00:57:09;23.70;56.60
11239;DHT22;5677;48.488;13.436;2022-08-19T00:59:43;23.70;56.60
11239;DHT22;5677;48.488;13.436;2022-08-19T01:02:15;23.70;56.60
11239;DHT22;5677;48.488;13.436;2022-08-19T01:04:46;23.70;56.60
11239;DHT22;5677;48.488;13.436;2022-08-19T01:07:15;23.70;56.60
11239;DHT22;5677;48.488;13.436;2022-08-19T01:09:44;23.70;56.60
11239;DHT22;5677;48.488;13.436;2022-08-19T01:12:13;23.60;56.50
11239;DHT22;5677;48.488;13.436;2022-08-19T01:14:42;23.70;56.60
11239;DHT22;5677;48.488;13.436;2022-08-19T01:17:12;23.70;56.60
11239;DHT22;5677;48.488;13.436;2022-08-19T01:19:43;23.70;56.60
11239;DHT22;5677;48.488;13.436;2022-08-19T01:22:20;23.70;56.60
11239;DHT22;5677;48.488;13.436;2022-08-19T01:24:58;23.60;56.50
11239;DHT22;5677;48.488;13.436;2022-08-19T01:27:26;23.70;56.60
11239;DHT22;5677;48.488;13.436;2022-08-19T01:30:04;23.60;56.50
11239;DHT22;5677;48.488;13.436;2022-08-19T01:32:34;23.60;56.50
11239;DHT22;5677;48.488;13.436;2022-08-19T01:35:05;23.60;56.50
11239;DHT22;5677;48.488;13.436;2022-08-19T01:37:45;23.60;56.50
11239;DHT22;5677;48.488;13.436;2022-08-19T01:40:15;23.70;56.60
11239;DHT22;5677;48.488;13.436;2022-08-19T01:42:45;23.60;56.50
11239;DHT22;5677;48.488;13.436;2022-08-19T01:45:15;23.60;57.20
11239;DHT22;5677;48.488;13.436;2022-08-19T01:47:44;23.60;56.50
11239;DHT22;5677;48.488;13.436;2022-08-19T01:50:13;23.60;56.50
11239;DHT22;5677;48.488;13.436;2022-08-19T01:52:44;23.60;56.50
11239;DHT22;5677;48.488;13.436;2022-08-19T01:55:17;23.60;56.50
11239;DHT22;5677;48.488;13.436;2022-08-19T01:57:51;23.60;56.50
11239;DHT22;5677;48.488;13.436;2022-08-19T02:00:27;23.60;56.50
11239;DHT22;5677;48.488;13.436;2022-08-19T02:03:00;23.60;56.50
11239;DHT22;5677;48.488;13.436;2022-08-19T02:05:28;23.60;56.50
11239;DHT22;5677;48.488;13.436;2022-08-19T02:07:59;23.60;56.50
11239;DHT22;5677;48.488;13.436;2022-08-19T02:10:27;23.60;56.50
11239;DHT22;5677;48.488;13.436;2022-08-19T02:12:56;23.60;56.40
11239;DHT22;5677;48.488;13.436;2022-08-19T02:15:24;23.60;56.50
11239;DHT22;5677;48.488;13.436;2022-08-19T02:17:52;23.60;56.40
11239;DHT22;5677;48.488;13.436;2022-08-19T02:20:21;23.60;56.50
11239;DHT22;5677;48.488;13.436;2022-08-19T02:22:50;23.60;56.40
11239;DHT22;5677;48.488;13.436;2022-08-19T02:25:20;23.60;56.40
11239;DHT22;5677;48.488;13.436;2022-08-19T02:27:49;23.60;56.50
11239;DHT22;5677;48.488;13.436;2022-08-19T02:30:18;23.60;56.40
11239;DHT22;5677;48.488;13.436;2022-08-19T02:32:47;23.60;56.50
11239;DHT22;5677;48.488;13.436;2022-08-19T02:35:16;23.60;56.40
11239;DHT22;5677;48.488;13.436;2022-08-19T02:37:45;23.60;56.50
11239;DHT22;5677;48.488;13.436;2022-08-19T02:40:33;23.60;56.40
11239;DHT22;5677;48.488;13.436;2022-08-19T02:43:04;23.60;56.40
11239;DHT22;5677;48.488;13.436;2022-08-19T02:45:35;23.60;56.40
11239;DHT22;5677;48.488;13.436;2022-08-19T02:48:05;23.60;56.40
11239;DHT22;5677;48.488;13.436;2022-08-19T02:50:38;23.60;56.40
11239;DHT22;5677;48.488;13.436;2022-08-19T02:53:07;23.60;56.40
11239;DHT22;5677;48.488;13.436;2022-08-19T02:55:43;23.60;56.40
11239;DHT22;5677;48.488;13.436;2022-08-19T02:58:14;23.60;57.20
11239;DHT22;5677;48.488;13.436;2022-08-19T03:00:44;23.60;56.50
11239;DHT22;5677;48.488;13.436;2022-08-19T03:03:15;23.60;56.40
11239;DHT22;5677;48.488;13.436;2022-08-19T03:05:45;23.60;56.40
11239;DHT22;5677;48.488;13.436;2022-08-19T03:08:13;23.60;56.40
11239;DHT22;5677;48.488;13.436;2022-08-19T03:10:46;23.60;56.40
11239;DHT22;5677;48.488;13.436;2022-08-19T03:13:17;23.60;56.40
11239;DHT22;5677;48.488;13.436;2022-08-19T03:15:47;23.60;56.40
11239;DHT22;5677;48.488;13.436;2022-08-19T03:18:17;23.60;56.40
11239;DHT22;5677;48.488;13.436;2022-08-19T03:20:47;23.60;56.40
11239;DHT22;5677;48.488;13.436;2022-08-19T03:23:19;23.60;56.40
11239;DHT22;5677;48.488;13.436;2022-08-19T03:25:51;23.60;56.40
11239;DHT22;5677;48.488;13.436;2022-08-19T03:28:20;23.60;56.40
11239;DHT22;5677;48.488;13.436;2022-08-19T03:30:56;23.60;56.40
11239;DHT22;5677;48.488;13.436;2022-08-19T03:33:27;23.60;56.40
11239;DHT22;5677;48.488;13.436;2022-08-19T03:36:07;23.60;56.50
11239;DHT22;5677;48.488;13.436;2022-08-19T03:38:38;23.50;56.40
11239;DHT22;5677;48.488;13.436;2022-08-19T03:41:13;23.60;56.40
11239;DHT22;5677;48.488;13.436;2022-08-19T03:43:45;23.60;56.40
11239;DHT22;5677;48.488;13.436;2022-08-19T03:46:17;23.50;56.40
11239;DHT22;5677;48.488;13.436;2022-08-19T03:48:49;23.50;56.50
11239;DHT22;5677;48.488;13.436;2022-08-19T03:51:26;23.60;56.40
11239;DHT22;5677;48.488;13.436;2022-08-19T03:53:58;23.50;56.40
11239;DHT22;5677;48.488;13.436;2022-08-19T03:56:30;23.60;56.40
11239;DHT22;5677;48.488;13.436;2022-08-19T03:58:59;23.60;56.40
11239;DHT22;5677;48.488;13.436;2022-08-19T04:01:28;23.50;56.40
11239;DHT22;5677;48.488;13.436;2022-08-19T04:03:57;23.50;56.40
11239;DHT22;5677;48.488;13.436;2022-08-19T04:06:28;23.50;56.40
11239;DHT22;5677;48.488;13.436;2022-08-19T04:08:59;23.50;56.40
11239;DHT22;5677;48.488;13.436;2022-08-19T04:11:33;23.60;56.40
11239;DHT22;5677;48.488;13.436;2022-08-19T04:14:08;23.50;56.40
11239;DHT22;5677;48.488;13.436;2022-08-19T04:16:39;23.50;56.40
11239;DHT22;5677;48.488;13.436;2022-08-19T04:19:10;23.60;56.40
11239;DHT22;5677;48.488;13.436;2022-08-19T04:21:39;23.60;56.40
11239;DHT22;5677;48.488;13.436;2022-08-19T04:24:11;23.50;56.40
11239;DHT22;5677;48.488;13.436;2022-08-19T04:26:42;23.50;56.40
11239;DHT22;5677;48.488;13.436;2022-08-19T04:29:13;23.50;56.40
11239;DHT22;5677;48.488;13.436;2022-08-19T04:31:44;23.50;56.40
11239;DHT22;5677;48.488;13.436;2022-08-19T04:34:15;23.50;56.40
11239;DHT22;5677;48.488;13.436;2022-08-19T04:36:48;23.50;56.40
11239;DHT22;5677;48.488;13.436;2022-08-19T04:39:20;23.50;56.40
11239;DHT22;5677;48.488;13.436;2022-08-19T04:42:14;23.50;56.40
11239;DHT22;5677;48.488;13.436;2022-08-19T04:45:00;23.50;56.40
11239;DHT22;5677;48.488;13.436;2022-08-19T04:47:29;23.50;56.40
11239;DHT22;5677;48.488;13.436;2022-08-19T04:49:59;23.50;56.40
11239;DHT22;5677;48.488;13.436;2022-08-19T04:52:27;23.50;56.40
11239;DHT22;5677;48.488;13.436;2022-08-19T04:54:57;23.60;56.40
11239;DHT22;5677;48.488;13.436;2022-08-19T04:57:28;23.50;56.40
11239;DHT22;5677;48.488;13.436;2022-08-19T04:59:57;23.50;56.40
11239;DHT22;5677;48.488;13.436;2022-08-19T05:02:26;23.60;56.40
11239;DHT22;5677;48.488;13.436;2022-08-19T05:04:57;23.50;56.40
11239;DHT22;5677;48.488;13.436;2022-08-19T05:07:27;23.50;56.50
11239;DHT22;5677;48.488;13.436;2022-08-19T05:09:57;23.50;56.60
11239;DHT22;5677;48.488;13.436;2022-08-19T05:12:27;23.50;56.60
11239;DHT22;5677;48.488;13.436;2022-08-19T05:14:56;23.50;57.70
11239;DHT22;5677;48.488;13.436;2022-08-19T05:17:27;23.50;57.50
11239;DHT22;5677;48.488;13.436;2022-08-19T05:19:56;23.50;57.20
11239;DHT22;5677;48.488;13.436;2022-08-19T05:22:42;23.50;57.10
11239;DHT22;5677;48.488;13.436;2022-08-19T05:25:19;23.50;57.00
11239;DHT22;5677;48.488;13.436;2022-08-19T05:27:51;23.50;57.00
11239;DHT22;5677;48.488;13.436;2022-08-19T05:30:20;23.50;57.40
11239;DHT22;5677;48.488;13.436;2022-08-19T05:32:48;23.50;57.20
11239;DHT22;5677;48.488;13.436;2022-08-19T05:35:17;23.50;57.20
11239;DHT22;5677;48.488;13.436;2022-08-19T05:37:45;23.50;57.20
11239;DHT22;5677;48.488;13.436;2022-08-19T05:40:14;23.50;57.20
11239;DHT22;5677;48.488;13.436;2022-08-19T05:42:43;23.40;56.90
11239;DHT22;5677;48.488;13.436;2022-08-19T05:45:14;23.50;57.30
11239;DHT22;5677;48.488;13.436;2022-08-19T05:47:42;23.40;58.10
11239;DHT22;5677;48.488;13.436;2022-08-19T05:50:11;23.40;58.20
11239;DHT22;5677;48.488;13.436;2022-08-19T05:52:40;23.40;58.10
11239;DHT22;5677;48.488;13.436;2022-08-19T05:55:09;23.40;58.40
11239;DHT22;5677;48.488;13.436;2022-08-19T05:57:38;23.40;58.20
11239;DHT22;5677;48.488;13.436;2022-08-19T06:00:07;23.40;58.20
11239;DHT22;5677;48.488;13.436;2022-08-19T06:02:39;23.40;58.10
11239;DHT22;5677;48.488;13.436;2022-08-19T06:05:09;23.40;57.90
11239;DHT22;5677;48.488;13.436;2022-08-19T06:07:39;23.40;57.90
11239;DHT22;5677;48.488;13.436;2022-08-19T06:10:10;23.40;57.70
11239;DHT22;5677;48.488;13.436;2022-08-19T06:12:39;23.40;57.70
11239;DHT22;5677;48.488;13.436;2022-08-19T06:15:10;23.40;57.70
11239;DHT22;5677;48.488;13.436;2022-08-19T06:17:43;23.40;57.50
11239;DHT22;5677;48.488;13.436;2022-08-19T06:20:13;23.40;57.50
11239;DHT22;5677;48.488;13.436;2022-08-19T06:22:46;23.40;57.40
11239;DHT22;5677;48.488;13.436;2022-08-19T06:25:18;23.40;57.40
11239;DHT22;5677;48.488;13.436;2022-08-19T06:27:46;23.40;60.40
11239;DHT22;5677;48.488;13.436;2022-08-19T06:30:17;23.40;62.40
11239;DHT22;5677;48.488;13.436;2022-08-19T06:32:47;23.30;62.70
11239;DHT22;5677;48.488;13.436;2022-08-19T06:35:17;23.30;63.30
11239;DHT22;5677;48.488;13.436;2022-08-19T06:37:46;23.30;62.30
11239;DHT22;5677;48.488;13.436;2022-08-19T06:40:14;23.30;61.40
11239;DHT22;5677;48.488;13.436;2022-08-19T06:42:43;23.30;61.90
11239;DHT22;5677;48.488;13.436;2022-08-19T06:45:12;23.30;60.80
11239;DHT22;5677;48.488;13.436;2022-08-19T06:47:40;23.20;59.90
11239;DHT22;5677;48.488;13.436;2022-08-19T06:50:14;23.30;59.60
11239;DHT22;5677;48.488;13.436;2022-08-19T06:52:42;23.30;59.30
11239;DHT22;5677;48.488;13.436;2022-08-19T06:55:11;23.30;59.30
11239;DHT22;5677;48.488;13.436;2022-08-19T06:57:39;23.30;59.40
11239;DHT22;5677;48.488;13.436;2022-08-19T07:00:10;23.40;59.70
11239;DHT22;5677;48.488;13.436;2022-08-19T07:02:40;23.40;61.20
11239;DHT22;5677;48.488;13.436;2022-08-19T07:05:09;23.40;62.20
11239;DHT22;5677;48.488;13.436;2022-08-19T07:07:39;23.40;61.10
11239;DHT22;5677;48.488;13.436;2022-08-19T07:10:10;23.40;60.40
11239;DHT22;5677;48.488;13.436;2022-08-19T07:12:38;23.40;61.10
11239;DHT22;5677;48.488;13.436;2022-08-19T07:15:08;23.40;60.50
11239;DHT22;5677;48.488;13.436;2022-08-19T07:17:38;23.40;60.40
11239;DHT22;5677;48.488;13.436;2022-08-19T07:20:08;23.40;60.10
11239;DHT22;5677;48.488;13.436;2022-08-19T07:22:39;23.40;59.90
11239;DHT22;5677;48.488;13.436;2022-08-19T07:25:08;23.40;59.70
11239;DHT22;5677;48.488;13.436;2022-08-19T07:27:39;23.40;59.60
11239;DHT22;5677;48.488;13.436;2022-08-19T07:30:09;23.40;59.50
11239;DHT22;5677;48.488;13.436;2022-08-19T07:32:38;23.40;59.30
11239;DHT22;5677;48.488;13.436;2022-08-19T07:35:07;23.40;59.20
11239;DHT22;5677;48.488;13.436;2022-08-19T07:37:36;23.40;59.30
11239;DHT22;5677;48.488;13.436;2022-08-19T07:40:10;23.40;59.30
11239;DHT22;5677;48.488;13.436;2022-08-19T07:42:39;23.40;59.40
11239;DHT22;5677;48.488;13.436;2022-08-19T07:45:10;23.40;59.40
11239;DHT22;5677;48.488;13.436;2022-08-19T07:47:38;23.50;59.60
11239;DHT22;5677;48.488;13.436;2022-08-19T07:50:09;23.50;59.70
11239;DHT22;5677;48.488;13.436;2022-08-19T07:52:40;23.50;59.50
11239;DHT22;5677;48.488;13.436;2022-08-19T07:55:10;23.50;59.30
11239;DHT22;5677;48.488;13.436;2022-08-19T07:57:39;23.50;59.10
11239;DHT22;5677;48.488;13.436;2022-08-19T08:00:09;23.50;59.00
11239;DHT22;5677;48.488;13.436;2022-08-19T08:02:37;23.50;58.90
11239;DHT22;5677;48.488;13.436;2022-08-19T08:05:09;23.50;58.70
11239;DHT22;5677;48.488;13.436;2022-08-19T08:07:57;23.50;58.70
11239;DHT22;5677;48.488;13.436;2022-08-19T08:10:42;23.50;58.60
11239;DHT22;5677;48.488;13.436;2022-08-19T08:13:11;23.50;58.60
11239;DHT22;5677;48.488;13.436;2022-08-19T08:15:40;23.50;58.50
11239;DHT22;5677;48.488;13.436;2022-08-19T08:18:10;23.50;58.50
11239;DHT22;5677;48.488;13.436;2022-08-19T08:20:39;23.50;58.50
11239;DHT22;5677;48.488;13.436;2022-08-19T08:23:09;23.50;58.50
11239;DHT22;5677;48.488;13.436;2022-08-19T08:25:51;23.60;58.50
11239;DHT22;5677;48.488;13.436;2022-08-19T08:28:22;23.50;58.50
11239;DHT22;5677;48.488;13.436;2022-08-19T08:30:51;23.50;58.40
11239;DHT22;5677;48.488;13.436;2022-08-19T08:33:22;23.60;58.40
11239;DHT22;5677;48.488;13.436;2022-08-19T08:35:51;23.50;58.40
11239;DHT22;5677;48.488;13.436;2022-08-19T08:38:22;23.60;58.30
11239;DHT22;5677;48.488;13.436;2022-08-19T08:40:53;23.50;58.30
11239;DHT22;5677;48.488;13.436;2022-08-19T08:43:34;23.50;58.20
11239;DHT22;5677;48.488;13.436;2022-08-19T08:46:07;23.60;58.30
11239;DHT22;5677;48.488;13.436;2022-08-19T08:48:42;23.60;58.20
11239;DHT22;5677;48.488;13.436;2022-08-19T08:51:20;23.50;58.20
11239;DHT22;5677;48.488;13.436;2022-08-19T08:53:54;23.60;58.20
11239;DHT22;5677;48.488;13.436;2022-08-19T08:56:24;23.50;58.20
11239;DHT22;5677;48.488;13.436;2022-08-19T08:58:58;23.50;58.20
11239;DHT22;5677;48.488;13.436;2022-08-19T09:01:33;23.50;58.20
11239;DHT22;5677;48.488;13.436;2022-08-19T09:04:04;23.60;58.10
11239;DHT22;5677;48.488;13.436;2022-08-19T09:06:39;23.60;58.10
11239;DHT22;5677;48.488;13.436;2022-08-19T09:09:29;23.60;58.10
11239;DHT22;5677;48.488;13.436;2022-08-19T09:12:06;23.60;58.10
11239;DHT22;5677;48.488;13.436;2022-08-19T09:14:48;23.60;58.00
11239;DHT22;5677;48.488;13.436;2022-08-19T09:17:20;23.60;58.10
11239;DHT22;5677;48.488;13.436;2022-08-19T09:20:01;23.60;58.00
11239;DHT22;5677;48.488;13.436;2022-08-19T09:22:35;23.60;58.00
11239;DHT22;5677;48.488;13.436;2022-08-19T09:25:08;23.60;58.00
11239;DHT22;5677;48.488;13.436;2022-08-19T09:27:40;23.60;58.10
11239;DHT22;5677;48.488;13.436;2022-08-19T09:30:14;23.60;58.70
11239;DHT22;5677;48.488;13.436;2022-08-19T09:32:44;23.60;58.10
11239;DHT22;5677;48.488;13.436;2022-08-19T09:35:14;23.60;58.00
11239;DHT22;5677;48.488;13.436;2022-08-19T09:37:43;23.60;58.10
11239;DHT22;5677;48.488;13.436;2022-08-19T09:40:14;23.60;58.10
11239;DHT22;5677;48.488;13.436;2022-08-19T09:42:42;23.60;58.10
11239;DHT22;5677;48.488;13.436;2022-08-19T09:45:13;23.60;58.10
11239;DHT22;5677;48.488;13.436;2022-08-19T09:47:43;23.60;58.10
11239;DHT22;5677;48.488;13.436;2022-08-19T09:50:12;23.60;58.00
11239;DHT22;5677;48.488;13.436;2022-08-19T09:52:41;23.60;58.00
11239;DHT22;5677;48.488;13.436;2022-08-19T09:55:11;23.60;58.00
11239;DHT22;5677;48.488;13.436;2022-08-19T09:57:42;23.60;58.00
11239;DHT22;5677;48.488;13.436;2022-08-19T10:00:11;23.60;58.00
11239;DHT22;5677;48.488;13.436;2022-08-19T10:02:40;23.60;58.00
11239;DHT22;5677;48.488;13.436;2022-08-19T10:05:08;23.70;58.10
11239;DHT22;5677;48.488;13.436;2022-08-19T10:07:54;23.70;58.10
11239;DHT22;5677;48.488;13.436;2022-08-19T10:10:24;23.70;58.10
11239;DHT22;5677;48.488;13.436;2022-08-19T10:12:53;23.70;58.10
11239;DHT22;5677;48.488;13.436;2022-08-19T10:15:22;23.70;58.10
11239;DHT22;5677;48.488;13.436;2022-08-19T10:17:50;23.70;58.10
11239;DHT22;5677;48.488;13.436;2022-08-19T10:20:19;23.70;58.10
11239;DHT22;5677;48.488;13.436;2022-08-19T10:22:51;23.70;58.10
11239;DHT22;5677;48.488;13.436;2022-08-19T10:25:19;23.70;58.10
11239;DHT22;5677;48.488;13.436;2022-08-19T10:27:49;23.80;58.10
11239;DHT22;5677;48.488;13.436;2022-08-19T10:30:18;23.80;58.10
11239;DHT22;5677;48.488;13.436;2022-08-19T10:32:47;23.80;58.10
11239;DHT22;5677;48.488;13.436;2022-08-19T10:35:16;23.80;58.10
11239;DHT22;5677;48.488;13.436;2022-08-19T10:37:46;23.80;58.20
11239;DHT22;5677;48.488;13.436;2022-08-19T10:40:15;23.80;58.20
11239;DHT22;5677;48.488;13.436;2022-08-19T10:42:45;23.80;58.20
11239;DHT22;5677;48.488;13.436;2022-08-19T10:45:15;23.80;58.30
11239;DHT22;5677;48.488;13.436;2022-08-19T10:47:44;23.80;58.20
11239;DHT22;5677;48.488;13.436;2022-08-19T10:50:13;23.80;58.30
11239;DHT22;5677;48.488;13.436;2022-08-19T10:53:04;23.80;58.30
11239;DHT22;5677;48.488;13.436;2022-08-19T10:55:35;23.80;58.50
11239;DHT22;5677;48.488;13.436;2022-08-19T10:58:22;23.80;58.40
11239;DHT22;5677;48.488;13.436;2022-08-19T11:00:55;23.80;58.80
11239;DHT22;5677;48.488;13.436;2022-08-19T11:03:25;23.80;59.70
11239;DHT22;5677;48.488;13.436;2022-08-19T11:06:00;23.80;59.50
11239;DHT22;5677;48.488;13.436;2022-08-19T11:08:29;23.80;59.30
11239;DHT22;5677;48.488;13.436;2022-08-19T11:11:00;23.90;59.30
11239;DHT22;5677;48.488;13.436;2022-08-19T11:13:30;23.90;61.80
11239;DHT22;5677;48.488;13.436;2022-08-19T11:16:07;23.80;61.40
11239;DHT22;5677;48.488;13.436;2022-08-19T11:18:41;23.90;61.80
11239;DHT22;5677;48.488;13.436;2022-08-19T11:21:13;23.90;61.70
11239;DHT22;5677;48.488;13.436;2022-08-19T11:23:46;23.90;61.70
11239;DHT22;5677;48.488;13.436;2022-08-19T11:26:16;23.90;61.70
11239;DHT22;5677;48.488;13.436;2022-08-19T11:28:47;23.90;61.90
11239;DHT22;5677;48.488;13.436;2022-08-19T11:31:21;23.90;61.80
11239;DHT22;5677;48.488;13.436;2022-08-19T11:33:55;23.90;61.40
11239;DHT22;5677;48.488;13.436;2022-08-19T11:36:24;23.90;61.10
11239;DHT22;5677;48.488;13.436;2022-08-19T11:38:54;24.00;60.80
11239;DHT22;5677;48.488;13.436;2022-08-19T11:41:24;23.90;60.30
11239;DHT22;5677;48.488;13.436;2022-08-19T11:43:53;24.00;60.30
11239;DHT22;5677;48.488;13.436;2022-08-19T11:46:25;24.00;60.20
11239;DHT22;5677;48.488;13.436;2022-08-19T11:48:55;24.00;60.50
11239;DHT22;5677;48.488;13.436;2022-08-19T11:51:25;24.00;60.50
11239;DHT22;5677;48.488;13.436;2022-08-19T11:53:57;24.00;60.20
11239;DHT22;5677;48.488;13.436;2022-08-19T11:56:27;24.00;59.90
11239;DHT22;5677;48.488;13.436;2022-08-19T11:58:56;24.10;60.40
11239;DHT22;5677;48.488;13.436;2022-08-19T12:01:27;24.10;60.30
11239;DHT22;5677;48.488;13.436;2022-08-19T12:03:57;24.10;60.10
11239;DHT22;5677;48.488;13.436;2022-08-19T12:06:29;24.10;60.10
11239;DHT22;5677;48.488;13.436;2022-08-19T12:09:03;24.10;60.30
11239;DHT22;5677;48.488;13.436;2022-08-19T12:11:34;24.10;60.10
11239;DHT22;5677;48.488;13.436;2022-08-19T12:14:05;24.10;59.80
11239;DHT22;5677;48.488;13.436;2022-08-19T12:16:36;24.10;59.70
11239;DHT22;5677;48.488;13.436;2022-08-19T12:19:05;24.10;59.60
11239;DHT22;5677;48.488;13.436;2022-08-19T12:21:35;24.10;59.80
11239;DHT22;5677;48.488;13.436;2022-08-19T12:24:06;24.10;59.80
11239;DHT22;5677;48.488;13.436;2022-08-19T12:26:35;24.10;59.90
11239;DHT22;5677;48.488;13.436;2022-08-19T12:29:04;24.10;59.80
11239;DHT22;5677;48.488;13.436;2022-08-19T12:31:36;24.20;59.70
11239;DHT22;5677;48.488;13.436;2022-08-19T12:34:04;24.10;59.70
11239;DHT22;5677;48.488;13.436;2022-08-19T12:36:34;24.20;59.50
11239;DHT22;5677;48.488;13.436;2022-08-19T12:39:03;24.20;59.50
11239;DHT22;5677;48.488;13.436;2022-08-19T12:41:35;24.20;59.50
11239;DHT22;5677;48.488;13.436;2022-08-19T12:44:06;24.20;59.40
11239;DHT22;5677;48.488;13.436;2022-08-19T12:46:35;24.20;59.20
11239;DHT22;5677;48.488;13.436;2022-08-19T12:49:04;24.20;59.00
11239;DHT22;5677;48.488;13.436;2022-08-19T12:51:33;24.10;58.80
11239;DHT22;5677;48.488;13.436;2022-08-19T12:54:03;24.10;58.70
11239;DHT22;5677;48.488;13.436;2022-08-19T12:56:32;24.20;58.80
11239;DHT22;5677;48.488;13.436;2022-08-19T12:59:02;24.10;58.90
11239;DHT22;5677;48.488;13.436;2022-08-19T13:01:32;24.20;59.20
11239;DHT22;5677;48.488;13.436;2022-08-19T13:04:03;24.20;59.10
11239;DHT22;5677;48.488;13.436;2022-08-19T13:06:31;24.20;58.90
11239;DHT22;5677;48.488;13.436;2022-08-19T13:09:00;24.10;59.00
11239;DHT22;5677;48.488;13.436;2022-08-19T13:11:29;24.20;58.70
11239;DHT22;5677;48.488;13.436;2022-08-19T13:14:00;24.20;58.50
11239;DHT22;5677;48.488;13.436;2022-08-19T13:16:30;24.20;58.40
11239;DHT22;5677;48.488;13.436;2022-08-19T13:19:01;24.20;58.00
11239;DHT22;5677;48.488;13.436;2022-08-19T13:21:31;24.20;58.00
11239;DHT22;5677;48.488;13.436;2022-08-19T13:24:00;24.20;58.10
11239;DHT22;5677;48.488;13.436;2022-08-19T13:26:29;24.20;58.00
11239;DHT22;5677;48.488;13.436;2022-08-19T13:28:58;24.20;57.90
11239;DHT22;5677;48.488;13.436;2022-08-19T13:31:44;24.20;58.00
11239;DHT22;5677;48.488;13.436;2022-08-19T13:34:34;24.20;58.10
11239;DHT22;5677;48.488;13.436;2022-08-19T13:37:04;24.30;58.20
11239;DHT22;5677;48.488;13.436;2022-08-19T13:39:34;24.30;58.30
11239;DHT22;5677;48.488;13.436;2022-08-19T13:42:04;24.30;58.50
11239;DHT22;5677;48.488;13.436;2022-08-19T13:44:36;24.30;58.50
11239;DHT22;5677;48.488;13.436;2022-08-19T13:47:06;24.30;58.50
11239;DHT22;5677;48.488;13.436;2022-08-19T13:49:40;24.20;58.40
11239;DHT22;5677;48.488;13.436;2022-08-19T13:52:09;24.30;58.30
11239;DHT22;5677;48.488;13.436;2022-08-19T13:54:37;24.20;58.10
11239;DHT22;5677;48.488;13.436;2022-08-19T13:57:07;24.30;58.00
11239;DHT22;5677;48.488;13.436;2022-08-19T13:59:36;24.30;58.40
11239;DHT22;5677;48.488;13.436;2022-08-19T14:02:05;24.30;57.40
11239;DHT22;5677;48.488;13.436;2022-08-19T14:04:33;24.30;57.40
11239;DHT22;5677;48.488;13.436;2022-08-19T14:07:05;24.30;57.20
11239;DHT22;5677;48.488;13.436;2022-08-19T14:09:33;24.30;57.10
11239;DHT22;5677;48.488;13.436;2022-08-19T14:12:02;24.30;57.20
11239;DHT22;5677;48.488;13.436;2022-08-19T14:14:31;24.30;57.30
11239;DHT22;5677;48.488;13.436;2022-08-19T14:17:00;24.30;57.00
11239;DHT22;5677;48.488;13.436;2022-08-19T14:19:29;24.40;56.90
11239;DHT22;5677;48.488;13.436;2022-08-19T14:21:57;24.40;56.90
11239;DHT22;5677;48.488;13.436;2022-08-19T14:24:28;24.40;56.70
11239;DHT22;5677;48.488;13.436;2022-08-19T14:26:58;24.40;56.50
11239;DHT22;5677;48.488;13.436;2022-08-19T14:29:27;24.40;56.30
11239;DHT22;5677;48.488;13.436;2022-08-19T14:31:56;24.40;56.10
11239;DHT22;5677;48.488;13.436;2022-08-19T14:34:26;24.40;56.10
11239;DHT22;5677;48.488;13.436;2022-08-19T14:36:54;24.40;55.90
11239;DHT22;5677;48.488;13.436;2022-08-19T14:39:24;24.40;55.70
11239;DHT22;5677;48.488;13.436;2022-08-19T14:41:55;24.40;55.30
11239;DHT22;5677;48.488;13.436;2022-08-19T14:44:25;24.40;55.10
11239;DHT22;5677;48.488;13.436;2022-08-19T14:46:53;24.40;55.00
11239;DHT22;5677;48.488;13.436;2022-08-19T14:49:22;24.40;55.10
11239;DHT22;5677;48.488;13.436;2022-08-19T14:51:50;24.40;55.10
11239;DHT22;5677;48.488;13.436;2022-08-19T14:54:19;24.40;55.10
11239;DHT22;5677;48.488;13.436;2022-08-19T14:56:49;24.40;55.20
11239;DHT22;5677;48.488;13.436;2022-08-19T14:59:17;24.40;55.50
11239;DHT22;5677;48.488;13.436;2022-08-19T15:01:46;24.40;55.60
11239;DHT22;5677;48.488;13.436;2022-08-19T15:04:15;24.40;55.50
11239;DHT22;5677;48.488;13.436;2022-08-19T15:06:44;24.40;55.50
11239;DHT22;5677;48.488;13.436;2022-08-19T15:09:14;24.40;55.70
11239;DHT22;5677;48.488;13.436;2022-08-19T15:11:42;24.40;55.80
11239;DHT22;5677;48.488;13.436;2022-08-19T15:14:13;24.40;55.70
11239;DHT22;5677;48.488;13.436;2022-08-19T15:16:41;24.40;55.70
11239;DHT22;5677;48.488;13.436;2022-08-19T15:19:10;24.40;56.10
11239;DHT22;5677;48.488;13.436;2022-08-19T15:21:38;24.40;56.40
11239;DHT22;5677;48.488;13.436;2022-08-19T15:24:07;24.40;56.70
11239;DHT22;5677;48.488;13.436;2022-08-19T15:26:36;24.40;56.70
11239;DHT22;5677;48.488;13.436;2022-08-19T15:29:05;24.40;56.60
11239;DHT22;5677;48.488;13.436;2022-08-19T15:31:36;24.40;56.40
11239;DHT22;5677;48.488;13.436;2022-08-19T15:34:04;24.40;56.30
11239;DHT22;5677;48.488;13.436;2022-08-19T15:36:33;24.40;56.30
11239;DHT22;5677;48.488;13.436;2022-08-19T15:39:03;24.40;56.30
11239;DHT22;5677;48.488;13.436;2022-08-19T15:41:36;24.40;56.70
11239;DHT22;5677;48.488;13.436;2022-08-19T15:44:06;24.40;56.70
11239;DHT22;5677;48.488;13.436;2022-08-19T15:46:39;24.40;56.70
11239;DHT22;5677;48.488;13.436;2022-08-19T15:49:10;24.40;57.30
11239;DHT22;5677;48.488;13.436;2022-08-19T15:51:40;24.40;56.70
11239;DHT22;5677;48.488;13.436;2022-08-19T15:54:15;24.40;56.90